createdAt,value
2023-09-23T00:00:58.968Z,55.27
2023-09-23T00:04:02.654Z,55.60
2023-09-23T00:07:07.375Z,55.47
2023-09-23T00:10:11.866Z,55.40
2023-09-23T00:13:14.443Z,55.46
2023-09-23T00:16:17.402Z,55.52
2023-09-23T00:19:20.995Z,55.49
2023-09-23T00:22:24.909Z,55.49
2023-09-23T00:25:27.553Z,55.75
2023-09-23T00:28:32.026Z,55.70
2023-09-23T00:31:34.770Z,55.75
2023-09-23T00:34:38.944Z,55.60
2023-09-23T00:37:43.250Z,55.76
2023-09-23T00:40:46.397Z,55.71
2023-09-23T00:43:49.915Z,55.32
2023-09-23T00:46:52.679Z,55.51
2023-09-23T00:49:55.744Z,55.67
2023-09-23T00:53:00.861Z,55.35
2023-09-23T00:56:04.604Z,55.98
2023-09-23T00:59:09.081Z,55.53
2023-09-23T01:02:13.888Z,55.39
2023-09-23T01:05:19.557Z,55.14
2023-09-23T01:08:30.975Z,55.57
2023-09-23T01:11:34.660Z,55.60
2023-09-23T01:14:37.214Z,55.35
2023-09-23T01:17:39.778Z,55.43
2023-09-23T01:20:43.519Z,55.51
2023-09-23T01:23:47.908Z,55.69
2023-09-23T01:26:52.656Z,55.68
2023-09-23T01:29:55.655Z,55.71
2023-09-23T01:32:58.555Z,56.02
2023-09-23T01:36:04.521Z,55.60
2023-09-23T01:39:08.795Z,55.74
2023-09-23T01:42:12.707Z,55.78
2023-09-23T01:45:15.540Z,55.71
2023-09-23T01:48:18.724Z,55.80
2023-09-23T01:51:23.223Z,55.83
2023-09-23T01:54:27.381Z,55.54
2023-09-23T01:57:31.178Z,55.79
2023-09-23T02:00:35.959Z,55.67
2023-09-23T02:03:39.336Z,56.11
2023-09-23T02:06:44.842Z,55.60
2023-09-23T02:09:48.756Z,56.18
2023-09-23T02:12:51.310Z,55.94
2023-09-23T02:15:56.488Z,55.84
2023-09-23T02:18:59.159Z,55.59
2023-09-23T02:22:06.735Z,55.55
2023-09-23T02:25:13.237Z,55.68
2023-09-23T02:28:15.853Z,55.70
2023-09-23T02:31:18.569Z,55.61
2023-09-23T02:34:21.385Z,56.03
2023-09-23T02:37:27.440Z,55.62
2023-09-23T02:40:32.335Z,55.52
2023-09-23T02:43:34.938Z,56.09
2023-09-23T02:46:38.624Z,55.66
2023-09-23T02:49:41.273Z,55.60
2023-09-23T02:52:45.808Z,55.61
2023-09-23T02:55:53.414Z,55.68
2023-09-23T02:58:57.674Z,55.88
2023-09-23T03:02:01.972Z,55.53
2023-09-23T03:05:09.317Z,55.58
2023-09-23T03:08:15.404Z,55.59
2023-09-23T03:11:19.998Z,55.87
2023-09-23T03:14:26.732Z,55.59
2023-09-23T03:17:30.157Z,55.93
2023-09-23T03:20:35.713Z,55.52
2023-09-23T03:23:40.686Z,55.90
2023-09-23T03:26:47.982Z,55.65
2023-09-23T03:29:51.060Z,55.44
2023-09-23T03:32:53.804Z,55.65
2023-09-23T03:35:56.792Z,55.63
2023-09-23T03:39:01.860Z,55.68
2023-09-23T03:42:06.928Z,55.81
2023-09-23T03:45:11.192Z,55.86
2023-09-23T03:48:13.890Z,55.87
2023-09-23T03:51:16.615Z,55.53
2023-09-23T03:54:19.257Z,55.65
2023-09-23T03:57:23.193Z,55.96
2023-09-23T04:00:27.878Z,55.71
2023-09-23T04:03:30.400Z,55.36
2023-09-23T04:06:34.356Z,55.57
2023-09-23T04:09:36.881Z,55.42
2023-09-23T04:12:43.600Z,55.72
2023-09-23T04:15:46.323Z,55.95
2023-09-23T04:18:49.213Z,55.83
2023-09-23T04:21:52.022Z,55.76
2023-09-23T04:24:54.837Z,55.66
2023-09-23T04:27:58.743Z,55.48
2023-09-23T04:31:01.588Z,55.82
2023-09-23T04:34:04.228Z,55.77
2023-09-23T04:37:06.854Z,55.75
2023-09-23T04:40:11.902Z,55.83
2023-09-23T04:43:17.458Z,55.68
2023-09-23T04:46:20.067Z,55.48
2023-09-23T04:49:22.756Z,55.61
2023-09-23T04:52:25.473Z,55.51
2023-09-23T04:55:30.230Z,55.89
2023-09-23T04:58:34.075Z,55.56
2023-09-23T05:01:36.775Z,55.94
2023-09-23T05:04:39.305Z,55.44
2023-09-23T05:07:41.908Z,55.40
2023-09-23T05:10:46.247Z,55.46
2023-09-23T05:13:51.319Z,55.70
2023-09-23T05:16:54.042Z,55.46
2023-09-23T05:19:56.653Z,55.82
2023-09-23T05:23:01.796Z,55.39
2023-09-23T05:26:05.980Z,55.44
2023-09-23T05:29:09.978Z,55.72
2023-09-23T05:32:13.425Z,55.77
2023-09-23T05:35:16.147Z,55.50
2023-09-23T05:38:19.653Z,55.81
2023-09-23T05:41:25.393Z,55.58
2023-09-23T05:44:29.365Z,55.97
2023-09-23T05:47:32.743Z,55.60
2023-09-23T05:50:36.618Z,55.93
2023-09-23T05:53:39.233Z,55.46
2023-09-23T05:56:41.763Z,55.78
2023-09-23T05:59:45.810Z,56.40
2023-09-23T06:02:48.969Z,55.88
2023-09-23T06:05:51.812Z,55.99
2023-09-23T06:08:54.397Z,55.59
2023-09-23T06:11:56.986Z,56.33
2023-09-23T06:15:01.782Z,56.03
2023-09-23T06:18:04.718Z,55.96
2023-09-23T06:21:07.959Z,55.70
2023-09-23T06:24:11.737Z,55.66
2023-09-23T06:27:15.068Z,55.62
2023-09-23T06:30:19.386Z,55.97
2023-09-23T06:33:22.947Z,55.48
2023-09-23T06:36:25.479Z,55.81
2023-09-23T06:39:28.067Z,55.60
2023-09-23T06:42:30.675Z,55.61
2023-09-23T06:45:34.846Z,55.44
2023-09-23T06:48:38.076Z,55.30
2023-09-23T06:51:41.890Z,55.62
2023-09-23T06:54:45.499Z,55.39
2023-09-23T06:57:48.515Z,55.40
2023-09-23T07:00:55.343Z,55.13
2023-09-23T07:03:58.038Z,55.25
2023-09-23T07:07:00.728Z,55.11
2023-09-23T07:10:05.255Z,55.41
2023-09-23T07:13:12.460Z,55.07
2023-09-23T07:16:17.515Z,55.38
2023-09-23T07:19:20.329Z,55.14
2023-09-23T07:22:22.893Z,55.35
2023-09-23T07:25:25.852Z,55.13
2023-09-23T07:28:28.408Z,55.02
2023-09-23T07:31:32.360Z,55.21
2023-09-23T07:34:35.060Z,54.64
2023-09-23T07:37:37.959Z,54.71
2023-09-23T07:40:41.864Z,54.96
2023-09-23T07:43:44.646Z,54.75
2023-09-23T07:46:48.865Z,54.98
2023-09-23T07:49:51.859Z,55.03
2023-09-23T07:52:54.741Z,54.66
2023-09-23T07:55:57.847Z,54.91
2023-09-23T07:59:00.497Z,54.79
2023-09-23T08:02:04.568Z,54.67
2023-09-23T08:05:08.140Z,54.62
2023-09-23T08:08:11.424Z,54.03
2023-09-23T08:11:14.477Z,53.44
2023-09-23T08:14:17.126Z,51.59
2023-09-23T08:17:21.264Z,50.94
2023-09-23T08:20:25.419Z,51.13
2023-09-23T08:23:28.699Z,51.74
2023-09-23T08:26:31.655Z,51.87
2023-09-23T08:29:35.476Z,51.25
2023-09-23T08:32:39.735Z,52.10
2023-09-23T08:35:43.990Z,51.71
2023-09-23T08:38:47.214Z,51.59
2023-09-23T08:41:54.432Z,51.15
2023-09-23T08:44:57.352Z,50.69
2023-09-23T08:48:04.394Z,50.51
2023-09-23T08:51:09.105Z,51.12
2023-09-23T08:54:13.200Z,51.04
2023-09-23T08:57:16.911Z,51.93
2023-09-23T09:00:21.207Z,51.65
2023-09-23T09:03:25.241Z,51.67
2023-09-23T09:06:30.991Z,51.78
2023-09-23T09:09:33.562Z,51.98
2023-09-23T09:12:36.711Z,52.14
2023-09-23T09:15:39.775Z,52.32
2023-09-23T09:18:43.745Z,52.11
2023-09-23T09:21:46.711Z,52.62
2023-09-23T09:24:49.367Z,50.96
2023-09-23T09:27:53.606Z,48.72
2023-09-23T09:31:00.617Z,46.86
2023-09-23T09:34:10.862Z,46.82
2023-09-23T09:37:14.688Z,48.33
2023-09-23T09:40:19.299Z,47.92
2023-09-23T09:43:23.041Z,49.48
2023-09-23T09:46:29.177Z,50.04
2023-09-23T09:49:34.598Z,49.03
2023-09-23T09:52:44.424Z,47.19
2023-09-23T09:55:47.441Z,45.37
2023-09-23T09:58:50.745Z,43.93
2023-09-23T10:01:53.529Z,43.17
2023-09-23T10:05:04.597Z,46.31
2023-09-23T10:08:13.768Z,43.38
2023-09-23T10:11:18.236Z,44.32
2023-09-23T10:14:21.244Z,47.35
2023-09-23T10:17:31.891Z,48.56
2023-09-23T10:20:36.995Z,49.55
2023-09-23T10:23:40.644Z,50.12
2023-09-23T10:26:44.851Z,50.59
2023-09-23T10:29:49.277Z,50.84
2023-09-23T10:32:52.597Z,51.21
2023-09-23T10:35:58.042Z,51.46
2023-09-23T10:39:01.122Z,51.56
2023-09-23T10:42:04.296Z,51.94
2023-09-23T10:45:08.182Z,52.23
2023-09-23T10:48:11.085Z,52.18
2023-09-23T10:51:16.572Z,52.21
2023-09-23T10:54:19.213Z,52.71
2023-09-23T10:57:22.089Z,52.90
2023-09-23T11:00:26.364Z,52.94
2023-09-23T11:03:29.792Z,53.24
2023-09-23T11:06:34.399Z,53.18
2023-09-23T11:09:37.687Z,53.74
2023-09-23T11:12:43.701Z,53.79
2023-09-23T11:15:47.635Z,53.45
2023-09-23T11:18:50.318Z,53.94
2023-09-23T11:21:55.147Z,54.01
2023-09-23T11:24:59.963Z,53.93
2023-09-23T11:28:03.562Z,53.91
2023-09-23T11:31:06.247Z,54.07
2023-09-23T11:34:09.266Z,54.01
2023-09-23T11:37:13.237Z,54.07
2023-09-23T11:40:16.986Z,54.30
2023-09-23T11:43:19.643Z,54.51
2023-09-23T11:46:23.769Z,54.92
2023-09-23T11:49:26.790Z,54.62
2023-09-23T11:52:32.164Z,54.71
2023-09-23T11:55:34.979Z,54.76
2023-09-23T11:58:37.864Z,54.84
2023-09-23T12:01:40.733Z,55.01
2023-09-23T12:04:43.388Z,54.82
2023-09-23T12:07:47.800Z,54.96
2023-09-23T12:10:50.971Z,54.81
2023-09-23T12:13:54.140Z,55.35
2023-09-23T12:16:57.298Z,55.03
2023-09-23T12:20:00.006Z,55.07
2023-09-23T12:23:04.311Z,54.95
2023-09-23T12:26:17.043Z,55.82
2023-09-23T12:29:20.016Z,55.65
2023-09-23T12:32:22.709Z,56.07
2023-09-23T12:35:25.517Z,55.71
2023-09-23T12:38:29.511Z,55.81
2023-09-23T12:41:32.385Z,55.59
2023-09-23T12:44:34.989Z,55.80
2023-09-23T12:47:54.932Z,55.62
2023-09-23T12:50:59.164Z,55.48
2023-09-23T12:54:03.150Z,55.60
2023-09-23T12:57:06.100Z,54.94
2023-09-23T13:00:10.031Z,54.73
2023-09-23T13:03:12.787Z,54.70
2023-09-23T13:06:15.523Z,54.54
2023-09-23T13:09:20.467Z,55.11
2023-09-23T13:12:23.060Z,54.78
2023-09-23T13:15:25.647Z,54.93
2023-09-23T13:18:29.868Z,54.76
2023-09-23T13:21:32.470Z,54.80
2023-09-23T13:24:36.374Z,54.65
2023-09-23T13:27:39.349Z,54.82
2023-09-23T13:30:41.989Z,54.27
2023-09-23T13:33:44.720Z,54.12
2023-09-23T13:36:47.308Z,54.38
2023-09-23T13:39:51.188Z,54.27
2023-09-23T13:42:54.402Z,54.16
2023-09-23T13:45:56.960Z,54.11
2023-09-23T13:48:59.971Z,54.33
2023-09-23T13:52:02.730Z,53.92
2023-09-23T13:55:08.262Z,54.13
2023-09-23T13:58:10.859Z,54.15
2023-09-23T14:01:13.500Z,53.96
2023-09-23T14:04:16.247Z,54.27
2023-09-23T14:07:18.836Z,53.79
2023-09-23T14:10:23.010Z,53.80
2023-09-23T14:13:25.822Z,53.88
2023-09-23T14:16:28.515Z,53.90
2023-09-23T14:19:33.056Z,53.99
2023-09-23T14:22:35.639Z,54.14
2023-09-23T14:25:39.533Z,54.21
2023-09-23T14:28:44.128Z,53.93
2023-09-23T14:31:46.744Z,53.94
2023-09-23T14:34:49.359Z,54.15
2023-09-23T14:37:52.012Z,54.09
2023-09-23T14:40:55.961Z,54.01
2023-09-23T14:43:58.620Z,54.07
2023-09-23T14:47:01.317Z,54.04
2023-09-23T14:50:04.323Z,54.40
2023-09-23T14:53:07.042Z,53.92
2023-09-23T14:56:10.970Z,54.16
2023-09-23T14:59:13.580Z,54.45
2023-09-23T15:02:16.235Z,54.16
2023-09-23T15:05:19.092Z,54.06
2023-09-23T15:08:21.777Z,54.21
2023-09-23T15:11:25.787Z,54.42
2023-09-23T15:14:29.722Z,54.34
2023-09-23T15:17:32.448Z,54.60
2023-09-23T15:20:37.208Z,54.37
2023-09-23T15:23:41.269Z,54.36
2023-09-23T15:26:46.142Z,54.38
2023-09-23T15:29:49.293Z,54.79
2023-09-23T15:32:52.476Z,54.52
2023-09-23T15:35:55.556Z,54.53
2023-09-23T15:38:58.215Z,54.43
2023-09-23T15:42:02.752Z,54.84
2023-09-23T15:45:06.006Z,54.76
2023-09-23T15:48:08.974Z,54.57
2023-09-23T15:51:14.344Z,54.72
2023-09-23T15:54:16.884Z,54.34
2023-09-23T15:57:20.809Z,54.71
2023-09-23T16:00:23.829Z,54.76
2023-09-23T16:03:26.460Z,54.73
2023-09-23T16:06:29.540Z,54.83
2023-09-23T16:09:32.386Z,54.68
2023-09-23T16:12:36.328Z,54.76
2023-09-23T16:15:38.964Z,55.11
2023-09-23T16:18:42.074Z,54.72
2023-09-23T16:21:45.269Z,54.73
2023-09-23T16:24:47.863Z,54.82
2023-09-23T16:27:51.813Z,54.88
2023-09-23T16:30:54.398Z,54.95
2023-09-23T16:33:58.125Z,54.85
2023-09-23T16:37:00.834Z,54.90
2023-09-23T16:40:03.480Z,54.95
2023-09-23T16:43:08.542Z,54.97
2023-09-23T16:46:11.586Z,55.27
2023-09-23T16:49:14.148Z,55.08
2023-09-23T16:52:16.937Z,55.01
2023-09-23T16:55:20.308Z,55.34
2023-09-23T16:58:24.687Z,55.22
2023-09-23T17:01:28.525Z,54.94
2023-09-23T17:04:31.385Z,55.15
2023-09-23T17:07:35.510Z,55.13
2023-09-23T17:10:38.081Z,55.09
2023-09-23T17:13:42.051Z,55.36
2023-09-23T17:16:44.629Z,55.32
2023-09-23T17:19:47.332Z,55.51
2023-09-23T17:22:50.042Z,55.87
2023-09-23T17:25:52.802Z,55.52
2023-09-23T17:29:00.458Z,55.92
2023-09-23T17:32:03.496Z,55.43
2023-09-23T17:35:06.717Z,55.71
2023-09-23T17:38:09.656Z,55.38
2023-09-23T17:41:15.022Z,55.80
2023-09-23T17:44:19.452Z,55.60
2023-09-23T17:47:22.368Z,55.62
2023-09-23T17:50:25.104Z,55.44
2023-09-23T17:53:29.724Z,55.47
2023-09-23T17:56:32.700Z,55.31
2023-09-23T17:59:38.030Z,55.47
2023-09-23T18:02:41.889Z,55.44
2023-09-23T18:05:44.626Z,55.62
2023-09-23T18:08:47.302Z,55.48
2023-09-23T18:11:53.308Z,55.85
2023-09-23T18:14:57.263Z,55.55
2023-09-23T18:18:00.111Z,55.53
2023-09-23T18:21:02.954Z,55.77
2023-09-23T18:24:06.472Z,55.74
2023-09-23T18:27:09.121Z,55.59
2023-09-23T18:30:15.429Z,55.46
2023-09-23T18:33:18.175Z,55.82
2023-09-23T18:36:20.886Z,55.55
2023-09-23T18:39:23.609Z,55.49
2023-09-23T18:42:26.234Z,55.50
2023-09-23T18:45:30.277Z,55.43
2023-09-23T18:48:33.732Z,55.77
2023-09-23T18:51:37.273Z,55.76
2023-09-23T18:54:40.069Z,55.75
2023-09-23T18:57:43.258Z,55.89
2023-09-23T19:00:47.787Z,55.75
2023-09-23T19:03:50.684Z,55.68
2023-09-23T19:06:54.629Z,55.79
2023-09-23T19:09:57.334Z,55.90
2023-09-23T19:13:00.016Z,55.51
2023-09-23T19:16:05.670Z,55.77
2023-09-23T19:19:11.362Z,55.76
2023-09-23T19:22:14.239Z,55.80
2023-09-23T19:25:17.229Z,55.62
2023-09-23T19:28:20.220Z,55.45
2023-09-23T19:31:24.679Z,55.65
2023-09-23T19:34:27.872Z,55.57
2023-09-23T19:37:30.824Z,55.89
2023-09-23T19:40:33.637Z,55.51
2023-09-23T19:43:38.605Z,55.71
2023-09-23T19:46:43.056Z,55.72
2023-09-23T19:49:45.733Z,55.74
2023-09-23T19:52:48.614Z,55.55
2023-09-23T19:55:51.417Z,55.55
2023-09-23T19:58:54.030Z,55.93
2023-09-23T20:01:57.986Z,55.67
2023-09-23T20:05:01.442Z,55.52
2023-09-23T20:08:04.532Z,55.99
2023-09-23T20:11:07.142Z,55.89
2023-09-23T20:14:10.465Z,55.44
2023-09-23T20:17:14.624Z,55.52
2023-09-23T20:20:17.657Z,55.76
2023-09-23T20:23:24.782Z,55.85
2023-09-23T20:26:29.406Z,55.67
2023-09-23T20:29:32.209Z,55.44
2023-09-23T20:32:39.054Z,55.69
2023-09-23T20:35:42.834Z,55.90
2023-09-23T20:38:46.185Z,55.46
2023-09-23T20:41:49.348Z,55.56
2023-09-23T20:44:52.050Z,56.03
2023-09-23T20:47:56.572Z,55.88
2023-09-23T20:51:00.057Z,55.47
2023-09-23T20:54:03.650Z,55.71
2023-09-23T20:57:06.311Z,55.73
2023-09-23T21:00:10.579Z,55.80
2023-09-23T21:03:17.166Z,55.56
2023-09-23T21:06:20.247Z,55.68
2023-09-23T21:09:23.077Z,55.46
2023-09-23T21:12:25.814Z,55.57
2023-09-23T21:16:39.232Z,55.65
2023-09-23T21:20:05.041Z,55.74
2023-09-23T21:23:13.542Z,55.49
2023-09-23T21:26:16.263Z,55.61
2023-09-23T21:29:18.982Z,55.81
2023-09-23T21:32:22.370Z,55.63
2023-09-23T21:35:27.452Z,55.79
2023-09-23T21:38:31.474Z,55.60
2023-09-23T21:41:34.321Z,56.01
2023-09-23T21:44:37.964Z,55.78
2023-09-23T21:47:40.974Z,55.89
2023-09-23T21:50:45.122Z,55.85
2023-09-23T21:53:47.960Z,55.64
2023-09-23T21:56:51.051Z,55.52
2023-09-23T21:59:53.696Z,55.88
2023-09-23T22:02:58.325Z,55.55
2023-09-23T22:06:03.583Z,55.89
2023-09-23T22:09:06.489Z,55.83
2023-09-23T22:12:09.623Z,55.92
2023-09-23T22:15:13.993Z,55.97
2023-09-23T22:18:16.777Z,55.94
2023-09-23T22:21:20.757Z,56.10
2023-09-23T22:24:23.327Z,55.98
2023-09-23T22:27:27.059Z,55.83
2023-09-23T22:30:30.336Z,55.69
2023-09-23T22:33:34.830Z,55.72
2023-09-23T22:36:39.347Z,55.65
2023-09-23T22:39:53.015Z,55.97
2023-09-23T22:43:03.318Z,55.70
2023-09-23T22:46:07.015Z,56.00
2023-09-23T22:49:13.416Z,55.54
2023-09-23T22:52:18.744Z,55.77
2023-09-23T22:55:23.864Z,55.91
2023-09-23T22:58:27.214Z,56.09
2023-09-23T23:01:29.974Z,55.96
2023-09-23T23:04:32.644Z,55.64
2023-09-23T23:07:37.950Z,55.58
2023-09-23T23:10:40.472Z,55.83
2023-09-23T23:13:43.125Z,55.68
2023-09-23T23:16:45.861Z,55.96
2023-09-23T23:19:48.536Z,55.75
2023-09-23T23:22:53.156Z,55.74
2023-09-23T23:25:55.764Z,56.05
2023-09-23T23:28:58.339Z,55.73
2023-09-23T23:32:00.936Z,55.86
2023-09-23T23:35:04.679Z,55.68
2023-09-23T23:38:12.298Z,56.12
2023-09-23T23:41:15.021Z,55.85
2023-09-23T23:44:18.944Z,56.00
2023-09-23T23:47:21.674Z,55.76
2023-09-23T23:50:25.129Z,55.68
2023-09-23T23:53:29.283Z,56.10
2023-09-23T23:56:32.477Z,55.58
2023-09-23T23:59:35.142Z,56.07
